createdAt,value
2023-05-18T00:00:10.817Z,2.90
2023-05-18T00:01:05.887Z,2.80
2023-05-18T00:02:01.244Z,2.30
2023-05-18T00:02:56.304Z,3.10
2023-05-18T00:03:51.268Z,2.10
2023-05-18T00:04:46.407Z,2.20
2023-05-18T00:05:41.301Z,2.90
2023-05-18T00:06:36.586Z,2.00
2023-05-18T00:07:31.450Z,2.70
2023-05-18T00:08:26.655Z,2.50
2023-05-18T00:09:22.255Z,2.40
2023-05-18T00:10:17.590Z,2.20
2023-05-18T00:11:13.312Z,2.80
2023-05-18T00:12:08.647Z,3.30
2023-05-18T00:13:03.810Z,2.80
2023-05-18T00:13:59.596Z,2.40
2023-05-18T00:14:54.762Z,2.80
2023-05-18T00:15:49.977Z,2.10
2023-05-18T00:16:46.166Z,2.60
2023-05-18T00:17:41.399Z,2.70
2023-05-18T00:18:37.136Z,2.50
2023-05-18T00:19:32.290Z,2.70
2023-05-18T00:20:27.345Z,2.50
2023-05-18T00:21:23.453Z,3.10
2023-05-18T00:22:18.389Z,2.90
2023-05-18T00:23:14.278Z,2.40
2023-05-18T00:24:09.427Z,2.70
2023-05-18T00:25:05.609Z,2.80
2023-05-18T00:26:00.549Z,2.40
2023-05-18T00:26:55.640Z,2.50
2023-05-18T00:27:50.807Z,2.50
2023-05-18T00:28:47.118Z,2.40
2023-05-18T00:29:42.299Z,2.40
2023-05-18T00:30:38.188Z,2.40
2023-05-18T00:31:33.575Z,2.40
2023-05-18T00:32:28.636Z,2.20
2023-05-18T00:33:24.398Z,3.00
2023-05-18T00:34:19.575Z,2.60
2023-05-18T00:35:16.307Z,2.80
2023-05-18T00:36:10.730Z,2.40
2023-05-18T00:37:05.761Z,2.70
2023-05-18T00:38:02.345Z,2.60
2023-05-18T00:38:57.413Z,2.80
2023-05-18T00:39:52.717Z,2.50
2023-05-18T00:40:48.917Z,2.80
2023-05-18T00:41:44.126Z,2.50
2023-05-18T00:42:39.878Z,2.60
2023-05-18T00:43:35.055Z,2.50
2023-05-18T00:44:30.373Z,2.40
2023-05-18T00:45:25.447Z,2.60
2023-05-18T00:46:22.037Z,2.80
2023-05-18T00:47:16.999Z,2.60
2023-05-18T00:48:12.227Z,2.10
2023-05-18T00:49:08.020Z,2.90
2023-05-18T00:50:03.189Z,2.50
2023-05-18T00:50:58.672Z,2.90
2023-05-18T00:51:54.564Z,2.30
2023-05-18T00:52:49.784Z,3.10
2023-05-18T00:53:45.512Z,2.60
2023-05-18T00:54:40.691Z,2.50
2023-05-18T00:55:36.019Z,2.70
2023-05-18T00:56:31.726Z,2.70
2023-05-18T00:57:26.898Z,2.60
2023-05-18T00:58:22.817Z,2.60
2023-05-18T00:59:17.961Z,3.00
2023-05-18T01:00:13.350Z,2.70
2023-05-18T01:01:09.002Z,3.20
2023-05-18T01:02:04.207Z,2.50
2023-05-18T01:02:59.417Z,2.50
2023-05-18T01:03:54.571Z,2.40
2023-05-18T01:04:49.900Z,3.00
2023-05-18T01:05:45.104Z,2.10
2023-05-18T01:06:40.151Z,2.50
2023-05-18T01:07:36.069Z,2.90
2023-05-18T01:08:31.243Z,2.20
2023-05-18T01:09:26.453Z,2.80
2023-05-18T01:10:22.540Z,2.70
2023-05-18T01:11:17.712Z,2.50
2023-05-18T01:12:12.810Z,2.80
2023-05-18T01:13:08.023Z,2.30
2023-05-18T01:14:03.083Z,2.60
2023-05-18T01:14:58.124Z,2.90
2023-05-18T01:15:53.318Z,2.90
2023-05-18T01:16:48.312Z,2.30
2023-05-18T01:17:43.215Z,2.70
2023-05-18T01:18:38.303Z,2.70
2023-05-18T01:19:33.345Z,2.60
2023-05-18T01:20:28.589Z,2.70
2023-05-18T01:21:23.488Z,2.40
2023-05-18T01:22:18.519Z,2.30
2023-05-18T01:23:14.476Z,2.90
2023-05-18T01:24:08.671Z,2.30
2023-05-18T01:25:03.716Z,3.10
2023-05-18T01:26:03.256Z,2.50
2023-05-18T01:26:58.124Z,2.70
2023-05-18T01:27:53.165Z,2.80
2023-05-18T01:28:48.225Z,3.30
2023-05-18T01:29:43.280Z,3.10
2023-05-18T01:30:38.761Z,2.50
2023-05-18T01:31:33.706Z,2.30
2023-05-18T01:32:28.904Z,3.10
2023-05-18T01:33:24.727Z,2.80
2023-05-18T01:34:19.777Z,2.90
2023-05-18T01:35:14.979Z,2.60
2023-05-18T01:36:10.196Z,3.30
2023-05-18T01:37:05.282Z,3.30
2023-05-18T01:38:00.440Z,2.70
2023-05-18T01:38:55.661Z,2.90
2023-05-18T01:39:50.845Z,3.00
2023-05-18T01:40:46.212Z,3.40
2023-05-18T01:41:41.233Z,2.80
2023-05-18T01:42:36.285Z,2.20
2023-05-18T01:43:31.511Z,2.90
2023-05-18T01:44:26.634Z,2.70
2023-05-18T01:45:21.776Z,2.70
2023-05-18T01:46:17.090Z,2.80
2023-05-18T01:47:12.085Z,2.80
2023-05-18T01:48:07.422Z,2.20
2023-05-18T01:49:02.442Z,2.00
2023-05-18T01:49:57.634Z,2.10
2023-05-18T01:50:52.942Z,2.50
2023-05-18T01:51:47.718Z,2.40
2023-05-18T01:52:42.776Z,2.70
2023-05-18T01:53:37.932Z,2.80
2023-05-18T01:54:33.092Z,2.60
2023-05-18T01:55:28.265Z,3.00
2023-05-18T01:56:23.460Z,2.90
2023-05-18T01:57:18.464Z,2.70
2023-05-18T01:58:13.502Z,2.70
2023-05-18T01:59:08.589Z,2.80
2023-05-18T02:00:03.611Z,3.10
2023-05-18T02:00:58.846Z,2.50
2023-05-18T02:01:59.269Z,3.00
2023-05-18T02:02:49.930Z,2.50
2023-05-18T02:03:43.981Z,3.00
2023-05-18T02:04:38.976Z,2.80
2023-05-18T02:05:34.001Z,3.00
2023-05-18T02:06:29.178Z,3.10
2023-05-18T02:07:24.271Z,2.50
2023-05-18T02:08:19.322Z,2.90
2023-05-18T02:09:14.316Z,2.90
2023-05-18T02:10:09.353Z,2.40
2023-05-18T02:11:04.556Z,2.50
2023-05-18T02:11:59.525Z,2.20
2023-05-18T02:12:54.562Z,2.50
2023-05-18T02:13:49.741Z,2.50
2023-05-18T02:14:45.244Z,2.80
2023-05-18T02:15:40.261Z,3.50
2023-05-18T02:16:36.893Z,2.70
2023-05-18T02:17:31.898Z,3.00
2023-05-18T02:18:27.610Z,2.80
2023-05-18T02:19:22.853Z,2.40
2023-05-18T02:20:17.846Z,2.70
2023-05-18T02:21:13.847Z,3.40
2023-05-18T02:22:08.897Z,2.40
2023-05-18T02:23:04.796Z,2.80
2023-05-18T02:23:59.932Z,2.80
2023-05-18T02:24:55.363Z,2.80
2023-05-18T02:25:51.003Z,2.20
2023-05-18T02:26:46.211Z,2.50
2023-05-18T02:27:41.484Z,2.60
2023-05-18T02:28:37.799Z,2.80
2023-05-18T02:29:32.982Z,2.30
2023-05-18T02:30:28.869Z,2.60
2023-05-18T02:31:24.080Z,2.50
2023-05-18T02:32:19.243Z,2.40
2023-05-18T02:33:15.141Z,2.80
2023-05-18T02:34:10.388Z,2.50
2023-05-18T02:35:06.254Z,2.80
2023-05-18T02:36:01.298Z,2.60
2023-05-18T02:36:56.653Z,2.50
2023-05-18T02:37:52.387Z,2.60
2023-05-18T02:38:47.618Z,2.30
2023-05-18T02:39:42.893Z,2.30
2023-05-18T02:40:39.144Z,2.30
2023-05-18T02:41:34.053Z,2.20
2023-05-18T02:42:29.979Z,2.80
2023-05-18T02:43:25.116Z,2.50
2023-05-18T02:44:20.457Z,1.80
2023-05-18T02:45:16.067Z,2.70
2023-05-18T02:46:11.670Z,2.10
2023-05-18T02:47:07.027Z,2.40
2023-05-18T02:48:02.195Z,2.40
2023-05-18T02:48:57.541Z,2.40
2023-05-18T02:49:53.335Z,2.10
2023-05-18T02:50:48.530Z,2.10
2023-05-18T02:51:43.724Z,2.20
2023-05-18T02:52:39.864Z,2.50
2023-05-18T02:53:35.106Z,2.50
2023-05-18T02:54:30.826Z,2.50
2023-05-18T02:55:25.998Z,2.00
2023-05-18T02:56:21.237Z,2.60
2023-05-18T02:57:16.878Z,2.80
2023-05-18T02:58:12.088Z,2.60
2023-05-18T02:59:08.828Z,2.30
2023-05-18T03:00:02.942Z,2.20
2023-05-18T03:00:58.387Z,2.30
2023-05-18T03:01:54.805Z,2.40
2023-05-18T03:02:50.091Z,2.70
2023-05-18T03:03:45.147Z,2.70
2023-05-18T03:04:41.574Z,1.60
2023-05-18T03:05:36.802Z,2.30
2023-05-18T03:06:32.577Z,2.70
2023-05-18T03:07:27.766Z,2.10
2023-05-18T03:08:22.984Z,2.40
2023-05-18T03:09:18.673Z,2.10
2023-05-18T03:10:13.915Z,2.50
2023-05-18T03:11:09.676Z,2.70
2023-05-18T03:12:04.861Z,2.30
2023-05-18T03:13:00.068Z,2.70
2023-05-18T03:13:55.966Z,2.10
2023-05-18T03:14:51.160Z,2.30
2023-05-18T03:15:46.681Z,2.30
2023-05-18T03:16:41.612Z,1.80
2023-05-18T03:17:36.883Z,2.00
2023-05-18T03:18:32.667Z,2.30
2023-05-18T03:19:27.965Z,2.30
2023-05-18T03:20:23.903Z,1.90
2023-05-18T03:21:19.009Z,2.40
2023-05-18T03:22:14.399Z,2.40
2023-05-18T03:23:10.209Z,3.10
2023-05-18T03:24:05.454Z,2.20
2023-05-18T03:25:00.698Z,2.90
2023-05-18T03:25:57.046Z,2.50
2023-05-18T03:26:52.311Z,1.80
2023-05-18T03:27:48.083Z,2.50
2023-05-18T03:28:43.331Z,2.90
2023-05-18T03:29:38.559Z,2.40
2023-05-18T03:30:34.437Z,2.70
2023-05-18T03:31:29.718Z,2.80
2023-05-18T03:32:24.917Z,2.30
2023-05-18T03:33:20.155Z,2.00
2023-05-18T03:34:15.389Z,2.30
2023-05-18T03:35:11.008Z,2.50
2023-05-18T03:36:05.633Z,2.30
2023-05-18T03:37:00.551Z,2.40
2023-05-18T03:37:55.716Z,2.30
2023-05-18T03:38:50.707Z,2.00
2023-05-18T03:39:45.783Z,2.80
2023-05-18T03:40:40.830Z,2.40
2023-05-18T03:41:41.767Z,2.40
2023-05-18T03:42:36.837Z,2.60
2023-05-18T03:43:32.362Z,2.30
2023-05-18T03:44:28.121Z,3.00
2023-05-18T03:45:23.481Z,2.20
2023-05-18T03:46:19.200Z,2.80
2023-05-18T03:47:14.972Z,3.00
2023-05-18T03:48:10.393Z,2.50
2023-05-18T03:49:06.203Z,2.50
2023-05-18T03:50:01.428Z,2.70
2023-05-18T03:50:57.106Z,2.40
2023-05-18T03:51:52.470Z,2.00
2023-05-18T03:52:47.829Z,2.00
2023-05-18T03:53:43.592Z,2.20
2023-05-18T03:54:38.948Z,2.30
2023-05-18T03:55:34.416Z,2.30
2023-05-18T03:56:30.090Z,2.00
2023-05-18T03:57:25.282Z,2.20
2023-05-18T03:58:20.651Z,2.60
2023-05-18T03:59:17.496Z,2.00
2023-05-18T04:00:12.164Z,2.30
2023-05-18T04:01:08.079Z,2.70
2023-05-18T04:02:03.170Z,1.80
2023-05-18T04:02:58.427Z,2.70
2023-05-18T04:03:54.240Z,1.90
2023-05-18T04:04:49.466Z,1.90
2023-05-18T04:05:45.265Z,2.10
2023-05-18T04:06:40.443Z,1.90
2023-05-18T04:07:35.823Z,2.00
2023-05-18T04:08:31.567Z,2.10
2023-05-18T04:09:26.944Z,2.00
2023-05-18T04:10:22.314Z,2.40
2023-05-18T04:11:18.683Z,2.50
2023-05-18T04:12:13.751Z,2.00
2023-05-18T04:13:09.518Z,2.20
2023-05-18T04:14:04.754Z,2.10
2023-05-18T04:15:00.185Z,2.20
2023-05-18T04:15:56.040Z,2.20
2023-05-18T04:16:51.373Z,2.30
2023-05-18T04:17:47.154Z,2.00
2023-05-18T04:18:42.572Z,2.70
2023-05-18T04:19:37.850Z,2.40
2023-05-18T04:20:33.710Z,2.10
2023-05-18T04:21:28.809Z,2.20
2023-05-18T04:22:24.321Z,2.50
2023-05-18T04:23:20.426Z,2.00
2023-05-18T04:24:15.829Z,2.30
2023-05-18T04:25:11.529Z,2.30
2023-05-18T04:26:07.106Z,1.80
2023-05-18T04:27:02.415Z,2.60
2023-05-18T04:27:58.039Z,2.50
2023-05-18T04:28:53.429Z,2.20
2023-05-18T04:29:49.313Z,2.50
2023-05-18T04:30:44.663Z,2.10
2023-05-18T04:31:40.640Z,2.10
2023-05-18T04:32:35.772Z,1.70
2023-05-18T04:33:31.155Z,1.80
2023-05-18T04:34:26.403Z,2.10
2023-05-18T04:35:22.955Z,2.00
2023-05-18T04:36:19.523Z,2.50
2023-05-18T04:37:13.460Z,1.40
2023-05-18T04:38:08.598Z,2.30
2023-05-18T04:39:03.613Z,1.80
2023-05-18T04:39:58.566Z,2.30
2023-05-18T04:40:53.788Z,2.40
2023-05-18T04:41:49.290Z,1.70
2023-05-18T04:42:43.930Z,2.00
2023-05-18T04:43:38.903Z,2.30
2023-05-18T04:44:33.948Z,1.90
2023-05-18T04:45:29.302Z,2.00
2023-05-18T04:46:24.087Z,2.00
2023-05-18T04:47:19.059Z,2.10
2023-05-18T04:48:14.219Z,2.50
2023-05-18T04:49:09.225Z,1.90
2023-05-18T04:50:04.252Z,2.20
2023-05-18T04:51:02.956Z,2.20
2023-05-18T04:51:57.926Z,2.30
2023-05-18T04:52:53.067Z,2.00
2023-05-18T04:53:48.092Z,2.00
2023-05-18T04:54:43.112Z,2.00
2023-05-18T04:55:38.355Z,2.10
2023-05-18T04:56:33.260Z,2.00
2023-05-18T04:57:28.359Z,2.30
2023-05-18T04:58:23.404Z,2.20
2023-05-18T04:59:18.473Z,1.90
2023-05-18T05:00:14.491Z,2.30
2023-05-18T05:01:09.106Z,2.00
2023-05-18T05:02:04.250Z,1.60
2023-05-18T05:02:59.764Z,1.70
2023-05-18T05:04:50.551Z,1.70
2023-05-18T05:05:47.315Z,1.70
2023-05-18T05:06:42.483Z,2.30
2023-05-18T05:07:37.919Z,1.70
2023-05-18T05:08:36.659Z,2.30
2023-05-18T05:09:31.967Z,2.30
2023-05-18T05:10:27.877Z,2.40
2023-05-18T05:11:22.792Z,1.60
2023-05-18T05:12:17.807Z,1.90
2023-05-18T05:13:12.843Z,1.80
2023-05-18T05:14:07.923Z,1.60
2023-05-18T05:15:08.365Z,1.90
2023-05-18T05:16:04.058Z,2.00
2023-05-18T05:16:59.130Z,1.80
2023-05-18T05:17:54.668Z,1.90
2023-05-18T05:18:50.146Z,1.90
2023-05-18T05:19:45.440Z,1.80
2023-05-18T05:20:40.890Z,2.10
2023-05-18T05:21:36.099Z,1.90
2023-05-18T05:22:31.425Z,1.90
2023-05-18T05:23:26.887Z,2.40
2023-05-18T05:24:22.223Z,1.70
2023-05-18T05:25:18.028Z,1.80
2023-05-18T05:26:13.037Z,1.50
2023-05-18T05:27:08.375Z,2.00
2023-05-18T05:28:03.661Z,2.20
2023-05-18T05:28:59.266Z,2.20
2023-05-18T05:29:54.622Z,1.90
2023-05-18T05:30:49.933Z,1.60
2023-05-18T05:31:45.046Z,1.50
2023-05-18T05:32:40.229Z,2.60
2023-05-18T05:33:35.250Z,2.00
2023-05-18T05:34:30.304Z,2.10
2023-05-18T05:35:25.658Z,2.10
2023-05-18T05:36:20.852Z,1.90
2023-05-18T05:37:16.704Z,2.00
2023-05-18T05:38:12.154Z,1.80
2023-05-18T05:39:07.512Z,2.10
2023-05-18T05:40:03.410Z,2.40
2023-05-18T05:40:58.591Z,2.20
2023-05-18T05:41:54.312Z,2.10
2023-05-18T05:42:49.610Z,1.60
2023-05-18T05:43:45.086Z,1.80
2023-05-18T05:44:40.929Z,1.80
2023-05-18T05:45:36.580Z,1.80
2023-05-18T05:46:31.603Z,1.80
2023-05-18T05:47:28.300Z,2.20
2023-05-18T05:48:23.695Z,2.00
2023-05-18T05:49:19.409Z,2.00
2023-05-18T05:50:14.750Z,1.90
2023-05-18T05:51:09.921Z,2.00
2023-05-18T05:52:05.792Z,1.90
2023-05-18T05:53:01.204Z,1.90
2023-05-18T05:53:57.044Z,1.60
2023-05-18T05:54:52.566Z,2.10
2023-05-18T05:55:47.883Z,1.90
2023-05-18T05:56:43.511Z,1.80
2023-05-18T05:57:38.783Z,1.90
2023-05-18T05:58:34.361Z,1.90
2023-05-18T05:59:30.375Z,1.90
2023-05-18T06:00:26.027Z,1.90
2023-05-18T06:01:21.763Z,1.80
2023-05-18T06:02:17.286Z,2.30
2023-05-18T06:03:12.724Z,2.30
2023-05-18T06:04:08.395Z,2.20
2023-05-18T06:05:03.676Z,1.80
2023-05-18T06:05:59.551Z,1.80
2023-05-18T06:06:54.710Z,2.10
2023-05-18T06:07:50.298Z,2.20
2023-05-18T06:08:45.901Z,2.10
2023-05-18T06:10:36.948Z,2.50
2023-05-18T06:11:32.953Z,2.00
2023-05-18T06:12:28.417Z,1.80
2023-05-18T06:13:24.154Z,2.30
2023-05-18T06:14:19.436Z,2.10
2023-05-18T06:15:14.937Z,1.40
2023-05-18T06:16:10.664Z,1.70
2023-05-18T06:17:05.977Z,1.90
2023-05-18T06:18:01.568Z,2.00
2023-05-18T06:18:57.027Z,1.90
2023-05-18T06:19:52.318Z,1.70
2023-05-18T06:20:48.229Z,1.80
2023-05-18T06:21:43.410Z,2.00
2023-05-18T06:22:38.842Z,2.00
2023-05-18T06:23:34.985Z,2.10
2023-05-18T06:24:30.463Z,2.10
2023-05-18T06:25:26.378Z,2.60
2023-05-18T06:26:21.574Z,2.90
2023-05-18T06:27:17.056Z,2.40
2023-05-18T06:28:12.709Z,1.90
2023-05-18T06:29:08.185Z,2.20
2023-05-18T06:30:04.206Z,2.60
2023-05-18T06:30:59.300Z,1.60
2023-05-18T06:31:54.748Z,2.40
2023-05-18T06:32:50.555Z,2.20
2023-05-18T06:33:45.820Z,2.30
2023-05-18T06:34:41.410Z,2.30
2023-05-18T06:35:37.595Z,2.20
2023-05-18T06:36:32.843Z,2.40
2023-05-18T06:37:28.350Z,2.10
2023-05-18T06:38:23.615Z,2.20
2023-05-18T06:39:19.655Z,2.40
2023-05-18T06:40:15.277Z,2.10
2023-05-18T06:41:10.581Z,2.10
2023-05-18T06:42:06.986Z,2.20
2023-05-18T06:43:02.419Z,2.20
2023-05-18T06:43:58.224Z,2.10
2023-05-18T06:44:53.780Z,2.40
2023-05-18T06:45:49.251Z,2.30
2023-05-18T06:46:44.896Z,2.10
2023-05-18T06:47:40.444Z,2.30
2023-05-18T06:48:36.270Z,2.50
2023-05-18T06:49:31.530Z,2.10
2023-05-18T06:50:28.080Z,2.30
2023-05-18T06:51:22.678Z,2.00
2023-05-18T06:52:18.018Z,2.10
2023-05-18T06:53:13.562Z,1.80
2023-05-18T06:54:08.971Z,2.50
2023-05-18T06:55:04.563Z,2.50
2023-05-18T06:56:00.596Z,2.80
2023-05-18T06:56:55.608Z,2.20
2023-05-18T06:57:50.693Z,2.10
2023-05-18T06:58:45.709Z,2.60
2023-05-18T06:59:40.854Z,2.60
2023-05-18T07:00:35.726Z,1.80
2023-05-18T07:01:35.900Z,2.20
2023-05-18T07:02:31.314Z,1.70
2023-05-18T07:03:26.719Z,1.90
2023-05-18T07:04:22.650Z,2.50
2023-05-18T07:05:18.184Z,2.00
2023-05-18T07:06:13.451Z,2.30
2023-05-18T07:07:09.832Z,2.20
2023-05-18T07:08:05.366Z,2.30
2023-05-18T07:09:01.155Z,2.20
2023-05-18T07:09:56.567Z,1.90
2023-05-18T07:10:51.938Z,2.00
2023-05-18T07:11:47.793Z,2.10
2023-05-18T07:12:43.184Z,2.30
2023-05-18T07:13:39.129Z,2.50
2023-05-18T07:14:34.696Z,2.00
2023-05-18T07:15:30.321Z,1.80
2023-05-18T07:16:25.619Z,2.40
2023-05-18T07:17:21.054Z,2.20
2023-05-18T07:18:16.460Z,2.40
2023-05-18T07:19:12.982Z,1.80
2023-05-18T07:20:08.238Z,2.20
2023-05-18T07:21:04.082Z,1.80
2023-05-18T07:21:59.541Z,2.40
2023-05-18T07:22:55.009Z,1.90
2023-05-18T07:23:50.761Z,2.70
2023-05-18T07:24:46.349Z,2.40
2023-05-18T07:25:42.170Z,2.40
2023-05-18T07:26:37.377Z,2.30
2023-05-18T07:27:32.691Z,1.80
2023-05-18T07:28:28.681Z,2.40
2023-05-18T07:29:23.960Z,2.30
2023-05-18T07:30:19.476Z,2.30
2023-05-18T07:31:15.796Z,2.30
2023-05-18T07:32:11.272Z,2.80
2023-05-18T07:33:07.212Z,1.80
2023-05-18T07:34:02.901Z,2.10
2023-05-18T07:34:58.375Z,2.50
2023-05-18T07:35:54.138Z,2.20
2023-05-18T07:36:49.603Z,2.30
2023-05-18T07:37:45.503Z,2.40
2023-05-18T07:38:40.737Z,1.90
2023-05-18T07:39:36.105Z,2.50
2023-05-18T07:40:31.925Z,2.20
2023-05-18T07:41:27.310Z,2.70
2023-05-18T07:42:22.795Z,2.30
2023-05-18T07:43:18.710Z,2.00
2023-05-18T07:44:14.157Z,2.10
2023-05-18T07:45:09.555Z,2.00
2023-05-18T07:46:05.947Z,1.90
2023-05-18T07:47:01.560Z,2.20
2023-05-18T07:47:57.258Z,2.10
2023-05-18T07:48:52.768Z,2.30
2023-05-18T07:49:48.258Z,2.40
2023-05-18T07:50:44.165Z,2.60
2023-05-18T07:51:39.637Z,2.20
2023-05-18T07:52:35.415Z,2.10
2023-05-18T07:53:30.768Z,2.40
2023-05-18T07:54:26.248Z,2.00
2023-05-18T07:55:22.021Z,2.40
2023-05-18T07:56:17.530Z,2.30
2023-05-18T07:57:12.918Z,2.40
2023-05-18T07:58:09.318Z,2.00
2023-05-18T07:59:05.031Z,1.90
2023-05-18T08:00:00.299Z,2.10
2023-05-18T08:00:55.703Z,2.30
2023-05-18T08:01:51.139Z,2.50
2023-05-18T08:02:46.337Z,2.40
2023-05-18T08:03:41.309Z,2.10
2023-05-18T08:04:36.345Z,2.10
2023-05-18T08:05:31.591Z,2.10
2023-05-18T08:06:26.279Z,2.10
2023-05-18T08:07:21.415Z,2.10
2023-05-18T08:08:16.455Z,2.20
2023-05-18T08:09:11.947Z,2.00
2023-05-18T08:10:08.498Z,2.00
2023-05-18T08:11:03.578Z,2.20
2023-05-18T08:11:58.584Z,2.00
2023-05-18T08:12:53.821Z,2.40
2023-05-18T08:13:48.849Z,2.20
2023-05-18T08:14:43.804Z,2.60
2023-05-18T08:15:38.847Z,2.30
2023-05-18T08:16:34.038Z,2.30
2023-05-18T08:17:28.994Z,2.00
2023-05-18T08:18:28.548Z,2.60
2023-05-18T08:19:24.262Z,2.30
2023-05-18T08:20:19.387Z,2.20
2023-05-18T08:21:15.273Z,2.40
2023-05-18T08:22:10.829Z,1.80
2023-05-18T08:23:06.250Z,2.20
2023-05-18T08:24:03.159Z,2.40
2023-05-18T08:24:58.514Z,2.40
2023-05-18T08:25:54.273Z,2.60
2023-05-18T08:26:49.718Z,3.00
2023-05-18T08:27:45.230Z,2.30
2023-05-18T08:28:41.280Z,2.20
2023-05-18T08:29:36.748Z,2.00
2023-05-18T08:30:32.524Z,2.30
2023-05-18T08:31:28.037Z,2.20
2023-05-18T08:32:23.509Z,2.40
2023-05-18T08:33:19.513Z,2.20
2023-05-18T08:34:15.188Z,2.50
2023-05-18T08:35:10.482Z,2.50
2023-05-18T08:36:06.934Z,2.20
2023-05-18T08:37:02.393Z,1.80
2023-05-18T08:37:58.211Z,2.60
2023-05-18T08:38:53.896Z,2.00
2023-05-18T08:39:49.314Z,2.20
2023-05-18T08:40:44.996Z,2.20
2023-05-18T08:41:40.599Z,2.30
2023-05-18T08:42:48.601Z,2.30
2023-05-18T08:43:32.785Z,2.40
2023-05-18T08:44:27.598Z,2.20
2023-05-18T08:45:22.952Z,2.00
2023-05-18T08:46:18.993Z,2.10
2023-05-18T08:47:14.292Z,2.20
2023-05-18T08:48:09.644Z,2.50
2023-05-18T08:49:05.709Z,2.60
2023-05-18T08:50:00.948Z,2.10
2023-05-18T08:50:56.384Z,1.90
2023-05-18T08:51:52.737Z,2.10
2023-05-18T08:52:48.150Z,2.60
2023-05-18T08:53:44.170Z,2.40
2023-05-18T08:54:39.636Z,2.20
2023-05-18T08:55:35.099Z,2.50
2023-05-18T08:56:30.894Z,1.70
2023-05-18T08:57:26.399Z,2.30
2023-05-18T08:58:22.270Z,2.20
2023-05-18T08:59:17.672Z,2.40
2023-05-18T09:00:13.106Z,2.00
2023-05-18T09:01:08.961Z,2.30
2023-05-18T09:02:04.578Z,2.40
2023-05-18T09:03:00.023Z,2.70
2023-05-18T09:03:56.652Z,2.40
2023-05-18T09:04:51.922Z,2.10
2023-05-18T09:05:47.673Z,2.10
2023-05-18T09:06:43.157Z,2.00
2023-05-18T09:07:38.540Z,2.10
2023-05-18T09:08:34.439Z,1.90
2023-05-18T09:09:30.059Z,1.90
2023-05-18T09:10:25.668Z,2.30
2023-05-18T09:11:21.069Z,2.20
2023-05-18T09:12:16.378Z,2.10
2023-05-18T09:13:12.246Z,2.10
2023-05-18T09:14:08.033Z,2.30
2023-05-18T09:15:03.339Z,2.60
2023-05-18T09:15:59.851Z,2.20
2023-05-18T09:16:55.475Z,2.10
2023-05-18T09:17:51.286Z,1.80
2023-05-18T09:18:46.710Z,2.60
2023-05-18T09:19:42.053Z,2.20
2023-05-18T09:20:37.463Z,2.20
2023-05-18T09:21:32.635Z,2.00
2023-05-18T09:22:27.546Z,2.30
2023-05-18T09:23:22.677Z,2.10
2023-05-18T09:24:17.869Z,2.50
2023-05-18T09:25:12.795Z,2.00
2023-05-18T09:26:07.968Z,2.00
2023-05-18T09:27:03.037Z,2.30
2023-05-18T09:27:58.226Z,2.00
2023-05-18T09:28:53.463Z,2.70
2023-05-18T09:29:48.342Z,1.90
2023-05-18T09:30:43.438Z,2.20
2023-05-18T09:31:40.574Z,1.70
2023-05-18T09:32:35.691Z,1.80
2023-05-18T09:33:30.671Z,2.20
2023-05-18T09:34:25.777Z,2.10
2023-05-18T09:35:20.815Z,1.70
2023-05-18T09:36:16.051Z,2.20
2023-05-18T09:37:11.155Z,1.80
2023-05-18T09:38:06.249Z,2.40
2023-05-18T09:39:01.712Z,2.00
2023-05-18T09:39:57.373Z,1.70
2023-05-18T09:40:52.705Z,2.10
2023-05-18T09:41:48.338Z,2.00
2023-05-18T09:42:43.670Z,2.30
2023-05-18T09:43:40.537Z,2.10
2023-05-18T09:44:35.706Z,1.80
2023-05-18T09:45:31.441Z,2.00
2023-05-18T09:46:26.681Z,2.00
2023-05-18T09:47:21.931Z,2.30
2023-05-18T09:48:16.829Z,1.80
2023-05-18T09:49:12.119Z,1.50
2023-05-18T09:50:07.068Z,2.30
2023-05-18T09:51:02.159Z,1.90
2023-05-18T09:51:57.277Z,1.90
2023-05-18T09:52:52.427Z,1.90
2023-05-18T09:53:47.453Z,1.90
2023-05-18T09:54:42.663Z,2.30
2023-05-18T09:55:37.655Z,2.30
2023-05-18T09:56:32.659Z,2.00
2023-05-18T09:57:27.752Z,1.90
2023-05-18T09:58:22.892Z,2.60
2023-05-18T09:59:17.905Z,2.50
2023-05-18T10:00:12.989Z,2.40
2023-05-18T10:01:08.004Z,2.10
2023-05-18T10:02:03.316Z,2.00
2023-05-18T10:02:58.851Z,2.20
2023-05-18T10:03:54.319Z,2.00
2023-05-18T10:04:50.001Z,1.70
2023-05-18T10:05:45.536Z,1.70
2023-05-18T10:06:41.297Z,1.90
2023-05-18T10:07:36.684Z,1.90
2023-05-18T10:08:32.107Z,1.80
2023-05-18T10:09:27.815Z,1.80
2023-05-18T10:10:23.189Z,1.70
2023-05-18T10:11:18.576Z,2.10
2023-05-18T10:12:14.808Z,1.60
2023-05-18T10:13:10.236Z,2.00
2023-05-18T10:14:05.934Z,1.70
2023-05-18T10:15:01.362Z,1.80
2023-05-18T10:15:56.841Z,1.40
2023-05-18T10:17:00.415Z,1.90
2023-05-18T10:17:49.017Z,1.90
2023-05-18T10:18:43.749Z,1.70
2023-05-18T10:19:39.137Z,2.00
2023-05-18T10:20:34.674Z,1.80
2023-05-18T10:21:30.496Z,2.60
2023-05-18T10:22:25.995Z,1.90
2023-05-18T10:23:21.238Z,2.10
2023-05-18T10:24:17.758Z,2.00
2023-05-18T10:25:13.135Z,2.00
2023-05-18T10:26:09.060Z,2.40
2023-05-18T10:27:04.452Z,1.50
2023-05-18T10:28:00.042Z,2.00
2023-05-18T10:28:56.004Z,1.70
2023-05-18T10:29:51.070Z,2.20
2023-05-18T10:30:47.164Z,2.20
2023-05-18T10:31:42.376Z,1.80
2023-05-18T10:32:38.076Z,1.40
2023-05-18T10:33:33.847Z,1.70
2023-05-18T10:34:29.451Z,1.50
2023-05-18T10:35:24.837Z,2.30
2023-05-18T10:36:20.771Z,1.90
2023-05-18T10:37:16.138Z,1.90
2023-05-18T10:38:11.408Z,1.50
2023-05-18T10:39:07.318Z,1.80
2023-05-18T10:40:02.764Z,1.90
2023-05-18T10:40:58.564Z,1.90
2023-05-18T10:41:53.993Z,1.60
2023-05-18T10:42:49.417Z,1.60
2023-05-18T10:43:45.266Z,1.80
2023-05-18T10:44:40.791Z,2.20
2023-05-18T10:45:36.442Z,1.30
2023-05-18T10:46:32.612Z,1.50
2023-05-18T10:47:28.264Z,2.00
2023-05-18T10:48:23.687Z,1.70
2023-05-18T10:49:19.241Z,2.00
2023-05-18T10:50:14.612Z,2.00
2023-05-18T10:51:10.087Z,1.40
2023-05-18T10:52:05.446Z,1.60
2023-05-18T10:53:01.681Z,1.80
2023-05-18T10:53:57.103Z,1.50
2023-05-18T10:54:52.642Z,2.00
2023-05-18T10:55:48.174Z,1.50
2023-05-18T10:56:43.606Z,1.70
2023-05-18T10:57:39.122Z,2.00
2023-05-18T10:58:34.927Z,1.60
2023-05-18T10:59:30.560Z,1.90
2023-05-18T11:00:26.190Z,1.80
2023-05-18T11:01:21.570Z,1.10
2023-05-18T11:02:16.916Z,1.70
2023-05-18T11:03:12.822Z,1.40
2023-05-18T11:04:08.136Z,1.40
2023-05-18T11:05:03.563Z,2.00
2023-05-18T11:05:59.803Z,1.30
2023-05-18T11:06:55.315Z,1.40
2023-05-18T11:07:51.159Z,1.70
2023-05-18T11:08:46.621Z,1.50
2023-05-18T11:09:42.255Z,1.70
2023-05-18T11:10:37.886Z,2.00
2023-05-18T11:11:33.513Z,1.30
2023-05-18T11:12:29.237Z,1.60
2023-05-18T11:13:24.541Z,1.60
2023-05-18T11:14:19.955Z,1.50
2023-05-18T11:15:15.679Z,1.50
2023-05-18T11:16:11.099Z,2.00
2023-05-18T11:17:06.505Z,1.60
2023-05-18T11:18:02.815Z,1.40
2023-05-18T11:18:58.510Z,1.50
2023-05-18T11:19:54.298Z,1.60
2023-05-18T11:20:49.759Z,1.50
2023-05-18T11:21:45.125Z,2.10
2023-05-18T11:22:40.862Z,1.20
2023-05-18T11:23:36.468Z,1.60
2023-05-18T11:24:32.476Z,2.00
2023-05-18T11:25:27.596Z,1.40
2023-05-18T11:26:23.010Z,2.00
2023-05-18T11:27:18.707Z,1.30
2023-05-18T11:28:14.079Z,1.80
2023-05-18T11:29:09.612Z,1.60
2023-05-18T11:30:15.128Z,1.70
2023-05-18T11:31:02.361Z,1.50
2023-05-18T11:31:57.372Z,1.20
2023-05-18T11:32:52.824Z,1.40
2023-05-18T11:33:48.326Z,1.50
2023-05-18T11:34:43.975Z,1.60
2023-05-18T11:35:39.347Z,1.70
2023-05-18T11:36:34.993Z,1.40
2023-05-18T11:37:30.547Z,1.40
2023-05-18T11:38:25.953Z,1.60
2023-05-18T11:39:21.810Z,1.80
2023-05-18T11:40:17.201Z,1.80
2023-05-18T11:41:12.709Z,1.90
2023-05-18T11:42:08.363Z,1.80
2023-05-18T11:43:03.721Z,1.30
2023-05-18T11:43:59.185Z,1.50
2023-05-18T11:44:54.942Z,1.80
2023-05-18T11:45:50.289Z,1.90
2023-05-18T11:46:46.164Z,1.50
2023-05-18T11:47:41.920Z,1.20
2023-05-18T11:48:37.570Z,1.70
2023-05-18T11:49:33.156Z,1.50
2023-05-18T11:50:28.674Z,1.80
2023-05-18T11:51:24.120Z,1.60
2023-05-18T11:52:20.471Z,2.00
2023-05-18T11:53:16.179Z,2.00
2023-05-18T11:54:11.866Z,1.70
2023-05-18T11:55:07.274Z,1.40
2023-05-18T11:56:02.689Z,1.80
2023-05-18T11:56:58.326Z,1.40
2023-05-18T11:57:53.632Z,1.90
2023-05-18T11:58:49.975Z,1.50
2023-05-18T11:59:45.357Z,1.60
2023-05-18T12:00:40.827Z,1.60
2023-05-18T12:01:36.753Z,2.00
2023-05-18T12:02:32.228Z,1.70
2023-05-18T12:03:28.154Z,1.90
2023-05-18T12:04:23.329Z,1.30
2023-05-18T12:05:18.799Z,1.50
2023-05-18T12:06:14.687Z,1.70
2023-05-18T12:07:09.954Z,1.80
2023-05-18T12:08:05.292Z,1.90
2023-05-18T12:09:01.259Z,1.70
2023-05-18T12:09:56.716Z,1.50
2023-05-18T12:10:52.341Z,1.70
2023-05-18T12:11:48.545Z,1.70
2023-05-18T12:12:43.972Z,1.40
2023-05-18T12:13:39.795Z,1.70
2023-05-18T12:14:35.242Z,1.70
2023-05-18T12:15:30.632Z,1.20
2023-05-18T12:16:26.401Z,1.70
2023-05-18T12:17:21.887Z,1.60
2023-05-18T12:18:17.701Z,1.50
2023-05-18T12:19:13.185Z,1.30
2023-05-18T12:20:08.461Z,1.40